Time;durP1;ratioP1;P1;durP2;ratioP2;P2;SDS_P1;SDS_P2;PMS_P1;PMS_P2;Temp;Humidity;BMP_temperature;BMP_pressure;BME280_temperature;BME280_humidity;BME280_pressure;Samples;Min_cycle;Max_cycle;Signal;HPM_P1;HPM_P2
2022/12/25 00:01:19;;;;;;;48.28;13.07;;;;;;;;;;5037618;27;89246;-70
2022/12/25 00:03:45;;;;;;;50.03;12.95;;;;;;;;;;5040102;27;90462;-68
2022/12/25 00:06:12;;;;;;;43.15;12.57;;;;;;;;;;5057250;27;89854;-68
2022/12/25 00:08:38;;;;;;;56.70;12.98;;;;;;;;;;5058007;27;89636;-69
2022/12/25 00:11:07;;;;;;;43.03;11.90;;;;;;;;;;5040000;27;89802;-69
2022/12/25 00:13:33;;;;;;;41.42;10.65;;;;;;;;;;5054701;27;89842;-68
2022/12/25 00:16:04;;;;;;;57.08;13.15;;;;;;;;;;5038865;27;89338;-69
2022/12/25 00:18:30;;;;;;;41.97;12.38;;;;;;;;;;5057705;27;90229;-68
2022/12/25 00:20:57;;;;;;;53.80;12.68;;;;;;;;;;5058514;27;89608;-68
2022/12/25 12:50:45;;;;;;;23.10;9.40;;;;;;;;;;5057119;27;87659;-68
2022/12/25 12:53:16;;;;;;;24.13;11.30;;;;;;;;;;5036752;27;87217;-69
2022/12/25 12:55:42;;;;;;;18.45;11.30;;;;;;;;;;5013058;27;89198;-67
2022/12/25 12:58:10;;;;;;;28.42;13.00;;;;;;;;;;5021269;27;90409;-67
2022/12/25 13:00:47;;;;;;;26.17;13.52;;;;;;;;;;5025946;27;90163;-68
2022/12/25 13:03:23;;;;;;;19.17;11.07;;;;;;;;;;5053157;27;89734;-68
2022/12/25 13:05:53;;;;;;;22.10;11.38;;;;;;;;;;5031620;27;88956;-68
2022/12/25 13:08:30;;;;;;;24.63;11.80;;;;;;;;;;5021938;27;90072;-69
2022/12/25 13:11:15;;;;;;;19.85;11.32;;;;;;;;;;5019425;27;90136;-70
2022/12/25 13:13:43;;;;;;;20.98;11.43;;;;;;;;;;5027034;27;90028;-67
2022/12/25 13:16:15;;;;;;;17.02;12.30;;;;;;;;;;5033536;27;89581;-68
2022/12/25 13:18:42;;;;;;;33.13;18.08;;;;;;;;;;5032856;27;89081;-68
2022/12/25 13:21:14;;;;;;;36.85;18.45;;;;;;;;;;5029871;28;90460;-69
2022/12/25 13:23:40;;;;;;;24.88;14.38;;;;;;;;;;5032041;27;91210;-69
2022/12/25 13:26:11;;;;;;;28.15;16.42;;;;;;;;;;5030696;28;89024;-68
2022/12/25 13:28:38;;;;;;;19.25;13.80;;;;;;;;;;5032087;27;92662;-67
2022/12/25 13:31:10;;;;;;;24.60;15.65;;;;;;;;;;5027004;28;89572;-69
2022/12/25 13:33:36;;;;;;;25.77;14.88;;;;;;;;;;5028656;28;89070;-68
2022/12/25 13:36:03;;;;;;;24.15;12.98;;;;;;;;;;5032681;28;89848;-68
2022/12/25 13:38:30;;;;;;;18.73;11.57;;;;;;;;;;5024121;27;89034;-68
2022/12/25 13:43:43;;;;;;;20.15;12.60;;;;;;;;;;5029273;27;89642;-69
2022/12/25 13:46:11;;;;;;;17.13;11.48;;;;;;;;;;5028593;27;89173;-71
2022/12/25 13:48:38;;;;;;;22.25;11.52;;;;;;;;;;5031133;28;89985;-71
2022/12/25 13:51:11;;;;;;;17.08;10.68;;;;;;;;;;5031144;28;89827;-72
2022/12/25 13:53:38;;;;;;;17.27;11.68;;;;;;;;;;5028505;27;89253;-69
2022/12/25 13:56:04;;;;;;;17.30;10.68;;;;;;;;;;5034131;28;89949;-70
2022/12/25 13:58:32;;;;;;;24.20;11.90;;;;;;;;;;5030979;27;91493;-70
2022/12/25 14:01:00;;;;;;;17.63;11.05;;;;;;;;;;5009327;27;89901;-70
2022/12/25 14:03:26;;;;;;;23.52;13.27;;;;;;;;;;5007661;28;90652;-70
2022/12/25 14:05:57;;;;;;;24.17;14.15;;;;;;;;;;5000989;28;89038;-73
2022/12/25 14:08:25;;;;;;;21.20;13.27;;;;;;;;;;4999044;28;90284;-71
2022/12/25 14:10:52;;;;;;;15.63;12.23;;;;;;;;;;4997413;28;89366;-71
2022/12/25 14:13:19;;;;;;;20.25;13.02;;;;;;;;;;5015057;28;89213;-71
2022/12/25 14:15:46;;;;;;;19.98;13.85;;;;;;;;;;5017861;28;90335;-69
2022/12/25 14:18:14;;;;;;;20.75;13.15;;;;;;;;;;5021032;28;89973;-67
2022/12/25 14:20:41;;;;;;;25.85;15.40;;;;;;;;;;5011034;28;90170;-67
2022/12/25 14:23:11;;;;;;;24.92;16.20;;;;;;;;;;5013145;28;89589;-70
2022/12/25 14:25:42;;;;;;;22.00;14.73;;;;;;;;;;5018720;28;88824;-68
2022/12/25 14:28:16;;;;;;;22.58;14.50;;;;;;;;;;5017804;28;89871;-66
2022/12/25 14:30:43;;;;;;;21.50;13.80;;;;;;;;;;5001641;28;89855;-68
2022/12/25 14:33:17;;;;;;;17.77;12.50;;;;;;;;;;5003333;28;89058;-68
2022/12/25 14:35:45;;;;;;;24.23;13.48;;;;;;;;;;5009201;28;89956;-68
2022/12/25 14:38:16;;;;;;;29.17;13.63;;;;;;;;;;5001989;28;93046;-69
2022/12/25 14:40:44;;;;;;;28.67;16.25;;;;;;;;;;5003401;28;89053;-70
2022/12/25 14:43:22;;;;;;;30.10;17.38;;;;;;;;;;5005599;28;89530;-68
2022/12/25 14:45:59;;;;;;;23.95;15.95;;;;;;;;;;5018081;28;89400;-68
2022/12/25 14:48:26;;;;;;;38.45;23.27;;;;;;;;;;4999843;28;90484;-69
2022/12/25 14:50:59;;;;;;;31.45;17.63;;;;;;;;;;5011452;28;89805;-70
2022/12/25 14:53:37;;;;;;;28.40;18.88;;;;;;;;;;5011225;28;90377;-69
2022/12/25 14:56:03;;;;;;;38.92;24.17;;;;;;;;;;5000247;28;90322;-68
2022/12/25 14:58:31;;;;;;;38.97;20.08;;;;;;;;;;4997284;28;89633;-69
2022/12/25 15:00:59;;;;;;;24.63;17.25;;;;;;;;;;4999429;28;89112;-68
2022/12/25 15:03:31;;;;;;;25.73;18.52;;;;;;;;;;5006435;28;89299;-67
2022/12/25 15:06:01;;;;;;;23.13;16.50;;;;;;;;;;5016984;28;89344;-68
2022/12/25 15:08:28;;;;;;;20.83;14.27;;;;;;;;;;5017698;28;90239;-69
2022/12/25 15:10:55;;;;;;;19.63;12.50;;;;;;;;;;5016611;28;89791;-68
2022/12/25 15:13:27;;;;;;;19.25;14.02;;;;;;;;;;5015462;28;89685;-68
2022/12/25 15:16:10;;;;;;;18.65;13.00;;;;;;;;;;5018123;28;90011;-68
2022/12/25 15:18:39;;;;;;;19.75;12.95;;;;;;;;;;5015100;28;89766;-68
2022/12/25 15:21:05;;;;;;;20.33;12.75;;;;;;;;;;5008832;28;90124;-69
2022/12/25 15:23:32;;;;;;;12.57;10.75;;;;;;;;;;5011183;28;90716;-68
2022/12/25 15:25:58;;;;;;;16.63;11.80;;;;;;;;;;5014890;28;90435;-68
2022/12/25 15:28:24;;;;;;;14.85;11.30;;;;;;;;;;5005977;28;90107;-68
2022/12/25 15:30:51;;;;;;;15.65;12.43;;;;;;;;;;5009968;28;90147;-68
2022/12/25 15:33:17;;;;;;;13.63;11.30;;;;;;;;;;5025483;28;89020;-68
2022/12/25 15:35:44;;;;;;;14.65;11.63;;;;;;;;;;5018686;27;91000;-68
2022/12/25 15:38:11;;;;;;;17.48;13.25;;;;;;;;;;4996875;28;90026;-68
2022/12/25 15:40:38;;;;;;;13.93;11.48;;;;;;;;;;4997369;28;89099;-68
2022/12/25 15:43:04;;;;;;;16.15;10.57;;;;;;;;;;4997649;28;89940;-68
2022/12/25 15:45:46;;;;;;;20.17;12.95;;;;;;;;;;5007867;28;89572;-68
2022/12/25 15:48:12;;;;;;;16.77;12.02;;;;;;;;;;5017492;28;90440;-68
2022/12/25 15:50:38;;;;;;;19.35;12.40;;;;;;;;;;5016996;28;89660;-68
2022/12/25 15:53:05;;;;;;;22.30;14.45;;;;;;;;;;5017652;28;88881;-68
2022/12/25 15:55:31;;;;;;;20.00;14.02;;;;;;;;;;5017602;28;90607;-68
2022/12/25 15:57:57;;;;;;;23.10;15.27;;;;;;;;;;5016182;28;89797;-68
2022/12/25 16:00:24;;;;;;;23.08;15.88;;;;;;;;;;5017324;28;89031;-68
2022/12/25 16:02:51;;;;;;;25.38;18.63;;;;;;;;;;5017329;28;88928;-68
2022/12/25 16:05:18;;;;;;;27.17;17.02;;;;;;;;;;5017351;28;90062;-68
2022/12/25 16:07:45;;;;;;;21.20;16.15;;;;;;;;;;5020118;28;89372;-68
2022/12/25 16:10:18;;;;;;;21.52;15.95;;;;;;;;;;5017565;28;90031;-68
2022/12/25 16:12:44;;;;;;;27.60;15.27;;;;;;;;;;5017026;28;88972;-68
2022/12/25 16:15:11;;;;;;;22.08;15.40;;;;;;;;;;5017568;28;89990;-68
2022/12/25 16:17:38;;;;;;;19.83;14.23;;;;;;;;;;5017160;28;90611;-68
2022/12/25 16:20:05;;;;;;;17.58;12.68;;;;;;;;;;5016422;28;89121;-68
2022/12/25 16:22:38;;;;;;;18.13;13.93;;;;;;;;;;5017406;28;91544;-69
2022/12/25 16:25:12;;;;;;;20.27;15.55;;;;;;;;;;5016548;28;89536;-69
2022/12/25 16:27:38;;;;;;;19.33;14.00;;;;;;;;;;5015641;28;89004;-69
2022/12/25 16:30:04;;;;;;;19.02;14.13;;;;;;;;;;5019717;28;90222;-69
2022/12/25 16:32:31;;;;;;;15.02;12.45;;;;;;;;;;5016646;28;89348;-67
2022/12/25 16:34:57;;;;;;;18.08;12.55;;;;;;;;;;5015405;28;90114;-67
2022/12/25 16:37:24;;;;;;;18.75;14.60;;;;;;;;;;5015343;28;89406;-67
2022/12/25 16:39:50;;;;;;;28.27;20.70;;;;;;;;;;5015550;28;89228;-67
2022/12/25 16:42:16;;;;;;;40.10;21.52;;;;;;;;;;5015339;28;90262;-67
2022/12/25 16:44:42;;;;;;;39.80;24.42;;;;;;;;;;5016904;28;89886;-67
2022/12/25 16:47:09;;;;;;;37.67;23.85;;;;;;;;;;5016777;28;89176;-67
2022/12/25 16:49:35;;;;;;;32.55;22.20;;;;;;;;;;5015002;28;90052;-69
2022/12/25 16:52:02;;;;;;;52.35;28.83;;;;;;;;;;5018351;28;89690;-67
2022/12/25 16:54:29;;;;;;;33.88;22.65;;;;;;;;;;5016716;28;91304;-67
2022/12/25 16:56:55;;;;;;;35.80;22.23;;;;;;;;;;5016502;28;90320;-67
2022/12/25 16:59:21;;;;;;;31.48;20.58;;;;;;;;;;5016157;28;89272;-67
2022/12/25 17:01:47;;;;;;;34.92;22.20;;;;;;;;;;5014727;28;90032;-67
2022/12/25 17:04:14;;;;;;;43.42;23.70;;;;;;;;;;5015900;28;89421;-67
2022/12/25 17:06:40;;;;;;;35.50;21.27;;;;;;;;;;5015964;28;89046;-67
2022/12/25 17:09:06;;;;;;;35.22;20.88;;;;;;;;;;5015564;28;90017;-67
2022/12/25 17:11:33;;;;;;;32.60;21.35;;;;;;;;;;5018801;28;89923;-67
2022/12/25 17:14:01;;;;;;;44.25;24.70;;;;;;;;;;5015845;28;90099;-67
2022/12/25 17:16:28;;;;;;;49.58;23.50;;;;;;;;;;5016071;28;89493;-67
2022/12/25 17:19:06;;;;;;;32.70;21.00;;;;;;;;;;5015999;28;89424;-67
2022/12/25 17:21:34;;;;;;;44.33;21.00;;;;;;;;;;5015904;28;91610;-67
2022/12/25 17:24:00;;;;;;;37.90;21.20;;;;;;;;;;5014690;28;90115;-67
2022/12/25 17:26:30;;;;;;;71.93;25.25;;;;;;;;;;5015463;28;89071;-67
2022/12/25 17:28:56;;;;;;;52.13;22.58;;;;;;;;;;5015838;28;90006;-67
2022/12/25 17:31:22;;;;;;;54.80;22.98;;;;;;;;;;5015486;28;89594;-67
2022/12/25 17:33:49;;;;;;;45.88;19.40;;;;;;;;;;5018156;28;89706;-67
2022/12/25 17:36:16;;;;;;;50.25;19.77;;;;;;;;;;5007708;28;89620;-67
2022/12/25 17:38:43;;;;;;;72.25;19.42;;;;;;;;;;5017513;28;88961;-67
2022/12/25 17:41:11;;;;;;;60.38;19.60;;;;;;;;;;5017349;28;90165;-67
2022/12/25 17:43:39;;;;;;;142.38;27.52;;;;;;;;;;5017556;28;89566;-67
2022/12/25 17:46:07;;;;;;;98.78;22.33;;;;;;;;;;5019537;28;89549;-67
2022/12/25 17:48:35;;;;;;;67.63;22.98;;;;;;;;;;5018989;28;94478;-67
2022/12/25 17:51:05;;;;;;;64.05;24.13;;;;;;;;;;5019082;28;89227;-67
2022/12/25 17:53:33;;;;;;;60.42;25.83;;;;;;;;;;5019009;28;89021;-67
2022/12/25 17:55:59;;;;;;;144.68;29.02;;;;;;;;;;5021725;28;90062;-67
2022/12/25 17:58:25;;;;;;;80.30;26.88;;;;;;;;;;5019932;28;90962;-66
2022/12/25 18:00:52;;;;;;;109.07;25.08;;;;;;;;;;5020052;28;90368;-66
2022/12/25 18:03:19;;;;;;;70.90;21.88;;;;;;;;;;5020582;28;91166;-67
2022/12/25 18:05:46;;;;;;;73.78;21.83;;;;;;;;;;5020541;28;89002;-67
2022/12/25 18:08:12;;;;;;;71.88;22.65;;;;;;;;;;5018287;28;89125;-67
2022/12/25 18:10:40;;;;;;;61.88;18.92;;;;;;;;;;5019953;28;89535;-66
2022/12/25 18:13:06;;;;;;;64.97;22.27;;;;;;;;;;5020030;28;89021;-67
2022/12/25 18:15:39;;;;;;;60.25;20.92;;;;;;;;;;5020212;28;90566;-66
2022/12/25 18:18:06;;;;;;;44.08;20.63;;;;;;;;;;5022782;28;89343;-66
2022/12/25 18:20:33;;;;;;;70.57;22.98;;;;;;;;;;5019130;28;90484;-66
2022/12/25 18:23:05;;;;;;;84.50;21.52;;;;;;;;;;5018134;28;89618;-67
2022/12/25 18:25:32;;;;;;;58.20;20.98;;;;;;;;;;5018200;28;89469;-67
2022/12/25 18:27:59;;;;;;;105.45;25.05;;;;;;;;;;5017293;28;90024;-67
2022/12/25 18:30:28;;;;;;;102.10;30.08;;;;;;;;;;5018353;28;90590;-67
2022/12/25 18:32:54;;;;;;;62.60;30.85;;;;;;;;;;5018053;28;89147;-67
2022/12/25 18:35:20;;;;;;;61.60;29.15;;;;;;;;;;5016738;28;90043;-66
2022/12/25 18:37:47;;;;;;;53.05;28.63;;;;;;;;;;5018225;28;89533;-67
2022/12/25 18:40:13;;;;;;;45.88;24.92;;;;;;;;;;5021390;28;88995;-67
2022/12/25 18:42:39;;;;;;;42.70;23.15;;;;;;;;;;5017900;28;89554;-67
2022/12/25 18:45:07;;;;;;;52.75;26.17;;;;;;;;;;5018980;28;89369;-67
2022/12/25 18:47:34;;;;;;;44.83;24.35;;;;;;;;;;5017252;28;90058;-67
2022/12/25 18:50:00;;;;;;;45.08;24.52;;;;;;;;;;5016272;28;89899;-67
2022/12/25 18:52:26;;;;;;;53.63;24.70;;;;;;;;;;5016617;28;89282;-68
2022/12/25 18:55:13;;;;;;;52.83;26.88;;;;;;;;;;5016880;28;89819;-68
2022/12/25 18:57:39;;;;;;;51.25;27.42;;;;;;;;;;5017811;28;90130;-68
2022/12/25 19:00:06;;;;;;;57.33;28.02;;;;;;;;;;5018025;28;89210;-68
2022/12/25 19:02:32;;;;;;;56.22;28.33;;;;;;;;;;5020377;28;90060;-67
2022/12/25 19:04:59;;;;;;;98.90;37.25;;;;;;;;;;5018341;28;88852;-66
2022/12/25 19:07:26;;;;;;;80.63;35.60;;;;;;;;;;5017791;28;90584;-67
2022/12/25 19:09:52;;;;;;;74.65;35.38;;;;;;;;;;5017225;28;89436;-67
2022/12/25 19:12:18;;;;;;;68.53;32.40;;;;;;;;;;5017261;28;89810;-67
2022/12/25 19:14:44;;;;;;;110.63;38.92;;;;;;;;;;5017131;28;90019;-67
2022/12/25 19:17:13;;;;;;;141.32;39.13;;;;;;;;;;5017525;28;89682;-67
2022/12/25 19:19:39;;;;;;;76.55;28.73;;;;;;;;;;5017269;28;88925;-68
2022/12/25 19:22:06;;;;;;;62.30;27.42;;;;;;;;;;5019077;28;89884;-68
2022/12/25 19:24:32;;;;;;;50.95;26.50;;;;;;;;;;5017322;28;88994;-68
2022/12/25 19:26:58;;;;;;;62.97;31.40;;;;;;;;;;5017824;28;90240;-67
2022/12/25 19:29:25;;;;;;;61.30;31.38;;;;;;;;;;5017662;28;89929;-68
2022/12/25 19:31:51;;;;;;;63.47;28.48;;;;;;;;;;5017012;28;89537;-68
2022/12/25 19:34:18;;;;;;;97.18;29.70;;;;;;;;;;5017391;28;90614;-67
2022/12/25 19:36:44;;;;;;;57.97;25.13;;;;;;;;;;5008300;28;89121;-68
2022/12/25 19:39:10;;;;;;;44.72;22.42;;;;;;;;;;5010633;28;89045;-68
2022/12/25 19:41:37;;;;;;;47.05;21.27;;;;;;;;;;5014401;28;90464;-68
2022/12/25 19:44:04;;;;;;;37.28;20.92;;;;;;;;;;4999686;28;90006;-68
2022/12/25 19:46:31;;;;;;;32.83;19.95;;;;;;;;;;5010514;28;90036;-68
2022/12/25 19:49:02;;;;;;;34.80;19.73;;;;;;;;;;5017017;28;89262;-68
2022/12/25 19:51:34;;;;;;;40.45;23.33;;;;;;;;;;5015581;28;89138;-68
2022/12/25 19:54:00;;;;;;;37.15;21.38;;;;;;;;;;5016171;28;89924;-68
2022/12/25 19:56:27;;;;;;;35.33;21.77;;;;;;;;;;5016943;28;90283;-68
2022/12/25 19:58:54;;;;;;;35.08;20.25;;;;;;;;;;5015776;28;89088;-68
2022/12/25 20:01:21;;;;;;;35.55;21.95;;;;;;;;;;5016494;28;90488;-68
2022/12/25 20:03:48;;;;;;;24.73;17.67;;;;;;;;;;5015597;28;89870;-68
2022/12/25 20:06:18;;;;;;;30.92;19.58;;;;;;;;;;5019836;28;89945;-68
2022/12/25 20:08:45;;;;;;;28.33;19.10;;;;;;;;;;5016598;28;90595;-68
2022/12/25 20:11:11;;;;;;;28.67;19.33;;;;;;;;;;5016433;28;89251;-68
2022/12/25 20:13:37;;;;;;;32.00;19.85;;;;;;;;;;5016398;28;90477;-68
2022/12/25 20:16:05;;;;;;;25.25;17.05;;;;;;;;;;5015466;28;89027;-68
2022/12/25 20:18:31;;;;;;;28.95;18.08;;;;;;;;;;5016599;28;89008;-68
2022/12/25 20:20:59;;;;;;;31.50;18.60;;;;;;;;;;5016588;28;90362;-68
2022/12/25 20:23:26;;;;;;;28.55;17.55;;;;;;;;;;5015280;28;89651;-69
2022/12/25 20:25:52;;;;;;;25.63;16.77;;;;;;;;;;5016017;28;89768;-69
2022/12/25 20:28:19;;;;;;;32.70;19.00;;;;;;;;;;5018310;28;90432;-68
2022/12/25 20:30:45;;;;;;;30.65;18.90;;;;;;;;;;5010431;28;89325;-68
2022/12/25 20:33:11;;;;;;;27.55;18.52;;;;;;;;;;4996554;28;90108;-69
2022/12/25 20:35:43;;;;;;;29.90;19.02;;;;;;;;;;5001209;28;89605;-68
2022/12/25 20:38:09;;;;;;;29.13;18.58;;;;;;;;;;5036383;27;88998;-69
2022/12/25 20:40:35;;;;;;;30.75;18.13;;;;;;;;;;5036422;27;90070;-67
2022/12/25 20:43:21;;;;;;;26.35;16.92;;;;;;;;;;4996626;28;89590;-68
2022/12/25 20:45:49;;;;;;;28.73;18.20;;;;;;;;;;5003724;28;89313;-68
2022/12/25 20:48:16;;;;;;;30.42;18.75;;;;;;;;;;5016236;28;90220;-68
2022/12/25 20:50:42;;;;;;;41.65;25.40;;;;;;;;;;5018124;28;89588;-68
2022/12/25 20:53:08;;;;;;;31.60;20.35;;;;;;;;;;5014650;28;90113;-68
2022/12/25 20:55:35;;;;;;;28.73;18.15;;;;;;;;;;5015646;28;89974;-68
2022/12/25 20:58:01;;;;;;;27.02;16.60;;;;;;;;;;5016101;28;89386;-68
2022/12/25 21:00:27;;;;;;;24.65;15.50;;;;;;;;;;5015990;28;90038;-68
2022/12/25 21:02:53;;;;;;;28.33;17.20;;;;;;;;;;5015939;28;89569;-68
2022/12/25 21:05:20;;;;;;;24.92;16.98;;;;;;;;;;5015614;28;90118;-68
2022/12/25 21:07:46;;;;;;;24.90;16.25;;;;;;;;;;5016260;28;90676;-69
2022/12/25 21:10:13;;;;;;;22.83;15.05;;;;;;;;;;5014257;28;89509;-69
2022/12/25 21:12:39;;;;;;;26.98;16.33;;;;;;;;;;5022549;28;90173;-68
2022/12/25 21:15:06;;;;;;;28.27;17.83;;;;;;;;;;5019250;28;89733;-68
2022/12/25 21:17:40;;;;;;;27.67;16.30;;;;;;;;;;5010279;28;89241;-68
2022/12/25 21:20:07;;;;;;;29.33;15.98;;;;;;;;;;5003759;28;90697;-70
2022/12/25 21:22:33;;;;;;;27.52;16.98;;;;;;;;;;5008431;28;92396;-69
2022/12/25 21:24:59;;;;;;;27.75;15.68;;;;;;;;;;5019269;28;88923;-69
2022/12/25 21:27:27;;;;;;;30.98;17.00;;;;;;;;;;5018834;28;90078;-70
2022/12/25 21:29:54;;;;;;;29.02;15.82;;;;;;;;;;5014239;28;89861;-70
2022/12/25 21:35:05;;;;;;;29.20;16.95;;;;;;;;;;5001081;28;90587;-69
2022/12/25 21:37:31;;;;;;;30.25;17.40;;;;;;;;;;5015889;28;89195;-69
2022/12/25 21:39:58;;;;;;;34.30;17.25;;;;;;;;;;5017674;28;91343;-69
2022/12/25 21:42:24;;;;;;;29.58;17.05;;;;;;;;;;5014282;28;89332;-69
2022/12/25 21:44:51;;;;;;;33.38;18.05;;;;;;;;;;5017587;28;89017;-69
2022/12/25 21:47:17;;;;;;;37.70;18.85;;;;;;;;;;5019260;28;90019;-70
2022/12/25 21:52:28;;;;;;;31.58;17.60;;;;;;;;;;5002539;28;89105;-69
2022/12/25 21:54:54;;;;;;;33.25;17.35;;;;;;;;;;5018888;28;91221;-70
2022/12/25 21:57:20;;;;;;;33.88;18.15;;;;;;;;;;5018662;28;89024;-68
